.
WxDataArchive / Data Records for 2012-11-26
2012-11-25 November 2012 2012-11-27

Data Records for Monday, 26 November 2012

Time	Temp	Chill	HIndex	Humid	Dewpt	 Wind 	HiWind	WindDir	Rain 	Barom 
-----	----	-----	------	-----	-----	------	------	-------	-----	----- 
00:00	31.0	31.0	31.0	81	25.9	0	0	---	0.00	30.033 
00:05	31.2	31.2	31.2	81	26.1	0	0	---	0.00	30.033 
00:10	31.3	31.3	31.3	81	26.2	0	0	---	0.00	30.033 
00:15	31.3	31.3	31.3	81	26.2	0	0	---	0.00	30.033 
00:20	31.5	31.5	31.5	81	26.4	0	0	---	0.00	30.033 
00:25	31.6	31.6	31.6	81	26.5	0	0	---	0.00	30.033 
00:30	31.6	31.6	31.6	81	26.5	0	0	---	0.00	30.034 
00:35	31.8	31.8	31.8	81	26.6	0	0	---	0.00	30.034 
00:40	31.8	31.8	31.8	81	26.6	0	0	---	0.00	30.034 
00:45	31.8	31.8	31.8	81	26.6	0	0	---	0.00	30.043 
00:50	31.8	31.8	31.8	81	26.6	0	0	---	0.00	30.043 
00:55	31.8	31.8	31.8	81	26.6	0	0	---	0.00	30.043 
01:00	31.8	31.8	31.8	81	26.6	0	0	---	0.00	30.043 
01:05	31.8	31.8	31.8	81	26.6	0	0	---	0.00	30.043 
01:10	31.8	31.8	31.8	81	26.6	0	0	---	0.00	30.043 
01:15	31.8	31.8	31.8	81	26.6	0	0	---	0.00	30.039 
01:20	31.9	31.9	31.9	81	26.7	0	0	---	0.00	30.039 
01:25	31.9	31.9	31.9	81	26.7	0	0	---	0.00	30.039 
01:30	31.9	31.9	31.9	81	26.7	0	0	---	0.00	30.035 
01:35	32.1	32.1	32.1	82	27.2	0	0	---	0.00	30.035 
01:40	32.1	32.1	32.1	82	27.2	0	0	---	0.00	30.035 
01:45	31.9	31.9	31.9	82	27.0	0	0	---	0.00	30.045 
01:50	31.9	31.9	31.9	82	27.0	0	0	---	0.00	30.045 
01:55	31.9	31.9	31.9	82	27.0	0	0	---	0.00	30.045 
02:00	32.1	32.1	32.1	82	27.2	0	0	---	0.00	30.053 
02:05	32.1	32.1	32.1	82	27.2	0	0	---	0.00	30.053 
02:10	32.1	32.1	32.1	82	27.2	0	0	---	0.00	30.053 
02:15	32.1	32.1	32.1	82	27.2	0	0	---	0.00	30.058 
02:20	31.9	31.9	31.9	82	27.0	0	0	---	0.00	30.058 
02:25	31.8	31.8	31.8	82	26.9	0	0	---	0.00	30.058 
02:30	31.5	31.5	31.5	82	26.7	0	0	---	0.00	30.062 
02:35	31.3	31.3	31.3	82	26.5	0	0	---	0.00	30.062 
02:40	31.0	31.0	31.0	82	26.2	0	0	---	0.00	30.062 
02:45	30.7	30.7	30.7	82	25.9	0	0	---	0.00	30.074 
02:50	30.4	30.4	30.4	82	25.6	0	0	---	0.00	30.074 
02:55	30.1	30.1	30.1	82	25.3	0	0	---	0.00	30.074 
03:00	30.0	30.0	30.0	82	25.2	0	0	---	0.00	30.076 
03:05	29.7	29.7	29.7	82	24.9	0	0	---	0.00	30.076 
03:10	29.4	29.4	29.4	83	24.9	0	0	---	0.00	30.076 
03:15	29.1	29.1	29.1	83	24.6	0	0	---	0.00	30.075 
03:20	29.0	29.0	29.0	83	24.5	0	0	---	0.00	30.075 
03:25	28.7	28.7	28.7	83	24.2	0	0	---	0.00	30.075 
03:30	28.5	28.5	28.5	84	24.3	0	0	---	0.00	30.078 
03:35	28.4	28.4	28.4	84	24.2	0	0	---	0.00	30.078 
03:40	28.2	28.2	28.2	84	24.0	0	0	---	0.00	30.078 
03:45	27.9	27.9	27.9	84	23.7	0	0	---	0.00	30.082 
03:50	27.8	27.8	27.8	84	23.6	0	0	---	0.00	30.082 
03:55	27.6	27.6	27.6	85	23.7	0	0	---	0.00	30.082 
04:00	27.3	27.3	27.3	85	23.4	0	0	---	0.00	30.085 
04:05	27.2	27.2	27.2	85	23.3	0	0	---	0.00	30.085 
04:10	27.0	27.0	27.0	85	23.1	0	0	---	0.00	30.085 
04:15	27.0	27.0	27.0	86	23.4	0	0	---	0.00	30.095 
04:20	26.9	26.9	26.9	86	23.3	0	0	---	0.00	30.095 
04:25	26.9	26.9	26.9	86	23.3	0	0	---	0.00	30.095 
04:30	26.7	26.7	26.7	86	23.1	0	0	---	0.00	30.098 
04:35	26.9	26.9	26.9	87	23.6	0	0	---	0.00	30.098 
04:40	27.0	27.0	27.0	87	23.7	0	0	---	0.00	30.098 
04:45	26.9	26.9	26.9	87	23.6	0	0	---	0.00	30.100 
04:50	26.7	26.7	26.7	87	23.4	0	0	---	0.00	30.100 
04:55	26.9	26.9	26.9	87	23.6	0	0	---	0.00	30.100 
05:00	26.9	26.9	26.9	87	23.6	0	0	---	0.00	30.113 
05:05	26.7	26.7	26.7	87	23.4	0	0	---	0.00	30.113 
05:10	26.6	26.6	26.6	87	23.3	0	0	---	0.00	30.113 
05:15	26.4	26.4	26.4	87	23.1	0	0	---	0.00	30.119 
05:20	26.3	26.3	26.3	87	23.0	0	0	---	0.00	30.119 
05:25	26.1	26.1	26.1	87	22.8	0	0	---	0.00	30.119 
05:30	26.1	26.1	26.1	87	22.8	0	0	---	0.00	30.121 
05:35	26.0	26.0	26.0	87	22.7	0	0	---	0.00	30.121 
05:40	25.8	25.8	25.8	87	22.5	0	0	---	0.00	30.121 
05:45	25.6	25.6	25.6	87	22.3	0	0	---	0.00	30.124 
05:50	25.6	25.6	25.6	87	22.3	0	0	---	0.00	30.124 
05:55	25.4	25.4	25.4	88	22.4	0	0	---	0.00	30.124 
06:00	25.4	25.4	25.4	88	22.4	0	0	---	0.00	30.134 
06:05	25.4	25.4	25.4	88	22.4	0	0	---	0.00	30.134 
06:10	25.3	25.3	25.3	88	22.3	0	0	---	0.00	30.134 
06:15	25.3	25.3	25.3	88	22.3	0	0	---	0.00	30.140 
06:20	25.3	25.3	25.3	88	22.3	0	0	---	0.00	30.140 
06:25	25.1	25.1	25.1	88	22.1	0	0	---	0.00	30.140 
06:30	25.1	25.1	25.1	88	22.1	0	0	---	0.00	30.146 
06:35	25.1	25.1	25.1	88	22.1	0	0	---	0.00	30.146 
06:40	25.0	25.0	25.0	88	22.0	0	0	---	0.00	30.146 
06:45	25.0	25.0	25.0	88	22.0	0	0	---	0.00	30.155 
06:50	25.3	25.3	25.3	88	22.3	0	0	---	0.00	30.155 
06:55	25.3	25.3	25.3	88	22.3	0	0	---	0.00	30.155 
07:00	25.3	25.3	25.3	88	22.3	0	0	---	0.00	30.156 
07:05	25.3	25.3	25.3	88	22.3	0	0	---	0.00	30.156 
07:10	25.3	25.3	25.3	88	22.3	0	0	---	0.00	30.156 
07:15	25.1	25.1	25.1	88	22.1	0	0	---	0.00	30.162 
07:20	25.1	25.1	25.1	88	22.1	0	0	---	0.00	30.162 
07:25	25.0	25.0	25.0	88	22.0	0	0	---	0.00	30.162 
07:30	25.0	25.0	25.0	89	22.2	0	0	---	0.00	30.173 
07:35	25.1	25.1	25.1	89	22.3	0	0	---	0.00	30.173 
07:40	25.1	25.1	25.1	89	22.3	0	0	---	0.00	30.173 
07:45	25.0	25.0	25.0	89	22.2	0	0	---	0.00	30.173 
07:50	24.8	24.8	24.8	89	22.0	0	0	---	0.00	30.173 
07:55	24.8	24.8	24.8	89	22.0	0	0	---	0.00	30.173 
08:00	24.8	24.8	24.8	89	22.0	0	0	---	0.00	30.175 
08:05	25.0	25.0	25.0	89	22.2	0	0	---	0.00	30.175 
08:10	25.0	25.0	25.0	89	22.2	0	0	---	0.00	30.175 
08:15	25.4	25.4	25.4	90	22.9	0	0	---	0.00	30.174 
08:20	26.0	26.0	26.0	90	23.5	0	0	---	0.00	30.174 
08:25	26.3	26.3	26.3	90	23.8	0	0	---	0.00	30.174 
08:30	26.6	26.6	26.6	90	24.1	0	0	---	0.00	30.188 
08:35	26.7	26.7	26.7	90	24.2	0	0	---	0.00	30.188 
08:40	26.9	26.9	26.9	90	24.4	0	0	---	0.00	30.188 
08:45	27.0	27.0	27.0	90	24.5	0	0	---	0.00	30.192 
08:50	27.3	27.3	27.3	90	24.8	0	0	---	0.00	30.192 
08:55	27.6	27.6	27.6	90	25.1	0	0	---	0.00	30.192 
09:00	27.9	27.9	27.9	90	25.4	0	0	---	0.00	30.199 
09:05	28.1	28.1	28.1	90	25.6	0	0	---	0.00	30.199 
09:10	28.4	28.4	28.4	90	25.8	0	0	---	0.00	30.199 
09:15	28.8	28.8	28.8	90	26.2	0	0	---	0.00	30.205 
09:20	29.1	29.1	29.1	90	26.5	0	0	---	0.00	30.205 
09:25	29.4	29.4	29.4	90	26.8	0	0	---	0.00	30.205 
09:30	29.8	29.8	29.8	90	27.2	0	0	---	0.00	30.199 
09:35	30.1	30.1	30.1	90	27.5	0	0	---	0.00	30.199 
09:40	30.4	30.4	30.4	89	27.6	0	0	---	0.00	30.199 
09:45	30.6	30.6	30.6	89	27.8	0	0	---	0.00	30.202 
09:50	30.7	30.7	30.7	88	27.6	0	0	---	0.00	30.202 
09:55	31.0	31.0	31.0	88	27.9	0	0	---	0.00	30.202 
10:00	31.3	31.3	31.3	88	28.2	0	0	---	0.00	30.206 
10:05	31.8	31.8	31.8	88	28.7	0	0	---	0.00	30.206 
10:10	32.2	32.2	32.2	87	28.8	0	0	---	0.00	30.206 
10:15	32.5	32.5	32.5	86	28.8	0	0	---	0.00	30.210 
10:20	32.7	32.7	32.7	85	28.7	0	0	---	0.00	30.210 
10:25	32.9	32.9	32.9	85	28.9	0	0	---	0.00	30.210 
10:30	33.1	33.1	33.1	84	28.8	0	1	270	0.00	30.212 
10:35	33.4	33.4	33.4	84	29.1	0	0	---	0.00	30.212 
10:40	33.7	33.7	33.7	84	29.4	0	0	---	0.00	30.212 
10:45	34.0	34.0	34.0	84	29.7	0	0	---	0.00	30.211 
10:50	34.1	34.1	34.1	83	29.5	0	0	---	0.00	30.211 
10:55	34.3	34.3	34.3	82	29.4	0	0	---	0.00	30.211 
11:00	34.7	34.7	34.7	82	29.8	0	0	---	0.00	30.216 
11:05	35.0	35.0	35.0	81	29.8	0	0	---	0.00	30.216 
11:10	35.5	35.5	35.5	80	30.0	0	0	---	0.00	30.216 
11:15	35.9	35.9	35.9	79	30.0	0	1	270	0.00	30.210 
11:20	36.2	36.2	36.2	78	30.0	0	0	---	0.00	30.210 
11:25	36.5	36.5	36.5	76	29.7	0	0	---	0.00	30.210 
11:30	36.6	36.6	36.6	74	29.1	0	0	---	0.00	30.208 
11:35	36.8	36.8	36.8	72	28.6	0	1	270	0.00	30.208 
11:40	37.0	37.0	37.0	71	28.5	0	0	---	0.00	30.208 
11:45	37.3	37.3	37.3	71	28.8	0	0	---	0.00	30.202 
11:50	37.8	37.8	37.8	69	28.6	0	2	270	0.00	30.202 
11:55	37.9	37.9	37.9	68	28.3	0	1	270	0.00	30.202 
12:00	38.2	38.2	38.2	67	28.2	0	2	270	0.00	30.202 
12:05	38.3	38.3	38.3	66	28.0	0	1	270	0.00	30.202 
12:10	38.2	38.2	38.2	65	27.5	1	3	270	0.00	30.202 
12:15	38.3	38.3	38.3	66	28.0	0	2	270	0.00	30.207 
12:20	38.3	38.3	38.3	65	27.6	0	2	270	0.00	30.207 
12:25	38.3	38.3	38.3	65	27.6	0	3	338	0.00	30.207 
12:30	38.2	38.2	38.2	64	27.1	1	4	270	0.00	30.203 
12:35	38.3	38.3	38.3	65	27.6	1	3	270	0.00	30.203 
12:40	38.5	38.5	38.5	64	27.4	1	4	270	0.00	30.203 
12:45	38.6	38.6	38.6	64	27.5	0	2	270	0.00	30.194 
12:50	38.8	38.8	38.8	64	27.7	0	2	270	0.00	30.194 
12:55	38.9	38.9	38.9	63	27.4	0	1	270	0.00	30.194 
13:00	38.9	38.9	38.9	63	27.4	0	1	270	0.00	30.193 
13:05	39.2	39.2	39.2	63	27.7	0	2	270	0.00	30.193 
13:10	39.3	39.3	39.3	63	27.8	0	3	270	0.00	30.193 
13:15	39.3	39.3	39.3	63	27.8	0	3	270	0.00	30.194 
13:20	39.3	39.3	39.3	62	27.4	1	4	270	0.00	30.194 
13:25	39.3	39.3	39.3	62	27.4	0	1	270	0.00	30.194 
13:30	39.5	39.5	39.5	63	28.0	0	1	270	0.00	30.189 
13:35	39.6	39.6	39.6	62	27.7	0	2	270	0.00	30.189 
13:40	39.5	39.5	39.5	62	27.6	0	3	270	0.00	30.189 
13:45	39.3	39.3	39.3	62	27.4	1	4	248	0.00	30.186 
13:50	39.3	39.3	39.3	62	27.4	1	4	248	0.00	30.186 
13:55	39.3	39.3	39.3	62	27.4	1	3	248	0.00	30.186 
14:00	39.5	39.5	39.5	62	27.6	0	2	248	0.00	30.185 
14:05	39.6	39.6	39.6	62	27.7	0	3	248	0.00	30.185 
14:10	39.8	39.8	39.8	62	27.9	0	2	248	0.00	30.185 
14:15	39.9	39.9	39.9	62	28.0	1	3	248	0.00	30.189 
14:20	39.9	39.9	39.9	62	28.0	1	3	248	0.00	30.189 
14:25	39.8	39.8	39.8	62	27.9	0	1	248	0.00	30.189 
14:30	39.8	39.8	39.8	62	27.9	0	2	248	0.00	30.190 
14:35	39.8	39.8	39.8	62	27.9	1	3	248	0.00	30.190 
14:40	39.6	39.6	39.6	62	27.7	0	2	248	0.00	30.190 
14:45	39.5	39.5	39.5	63	28.0	0	3	248	0.00	30.190 
14:50	39.5	39.5	39.5	62	27.6	0	2	248	0.00	30.190 
14:55	39.6	39.6	39.6	62	27.7	1	4	248	0.00	30.190 
15:00	39.6	39.6	39.6	63	28.1	0	2	248	0.00	30.190 
15:05	39.6	39.6	39.6	63	28.1	1	3	248	0.00	30.190 
15:10	39.5	39.5	39.5	62	27.6	0	2	248	0.00	30.190 
15:15	39.3	39.3	39.3	63	27.8	0	1	248	0.00	30.198 
15:20	39.2	39.2	39.2	63	27.7	0	2	248	0.00	30.198 
15:25	39.1	39.1	39.1	63	27.6	0	1	248	0.00	30.198 
15:30	39.1	39.1	39.1	63	27.6	0	2	248	0.00	30.203 
15:35	38.9	38.9	38.9	64	27.8	0	2	248	0.00	30.203 
15:40	38.8	38.8	38.8	63	27.3	0	2	248	0.00	30.203 
15:45	38.8	38.8	38.8	63	27.3	0	3	248	0.00	30.209 
15:50	38.8	38.8	38.8	63	27.3	0	2	248	0.00	30.209 
15:55	38.6	38.6	38.6	63	27.1	1	3	248	0.00	30.209 
16:00	38.5	38.5	38.5	62	26.6	1	3	270	0.00	30.209 
16:05	38.3	38.3	38.3	62	26.4	0	3	292	0.00	30.209 
16:10	38.2	38.2	38.2	62	26.3	1	3	292	0.00	30.209 
16:15	38.0	38.0	38.0	62	26.2	1	3	315	0.00	30.212 
16:20	37.9	37.9	37.9	63	26.4	0	5	292	0.00	30.212 
16:25	37.8	37.8	37.8	63	26.4	0	2	292	0.00	30.212 
16:30	37.5	37.5	37.5	63	26.1	1	3	338	0.00	30.214 
16:35	37.3	37.3	37.3	63	25.9	1	3	292	0.00	30.214 
16:40	37.2	37.2	37.2	63	25.8	0	2	292	0.00	30.214 
16:45	37.0	37.0	37.0	63	25.6	0	1	292	0.00	30.218 
16:50	36.9	36.9	36.9	63	25.5	1	3	292	0.00	30.218 
16:55	36.9	36.9	36.9	63	25.5	0	1	292	0.00	30.218 
17:00	36.8	36.8	36.8	63	25.4	0	3	292	0.00	30.219 
17:05	36.6	36.6	36.6	62	24.8	0	2	292	0.00	30.219 
17:10	36.5	36.5	36.5	62	24.7	0	1	292	0.00	30.219 
17:15	36.5	36.5	36.5	62	24.7	0	1	292	0.00	30.223 
17:20	36.3	36.3	36.3	62	24.5	0	3	292	0.00	30.223 
17:25	36.2	36.2	36.2	61	24.1	0	2	292	0.00	30.223 
17:30	36.2	36.2	36.2	61	24.1	0	2	292	0.00	30.228 
17:35	36.2	36.2	36.2	61	24.1	0	1	292	0.00	30.228 
17:40	36.2	36.2	36.2	61	24.1	0	1	292	0.00	30.228 
17:45	36.0	36.0	36.0	61	23.9	0	1	292	0.00	30.230 
17:50	36.0	36.0	36.0	61	23.9	0	3	292	0.00	30.230 
17:55	36.0	36.0	36.0	61	23.9	0	1	292	0.00	30.230 
18:00	36.0	36.0	36.0	61	23.9	0	1	292	0.00	30.235 
18:05	36.0	36.0	36.0	60	23.5	0	2	292	0.00	30.235 
18:10	36.0	36.0	36.0	60	23.5	0	1	292	0.00	30.235 
18:15	35.9	35.9	35.9	60	23.4	0	2	292	0.00	30.238 
18:20	35.8	35.8	35.8	60	23.3	1	4	292	0.00	30.238 
18:25	35.5	35.5	35.5	61	23.4	0	2	338	0.00	30.238 
18:30	35.2	35.2	35.2	61	23.1	0	2	338	0.00	30.248 
18:35	35.0	35.0	35.0	62	23.3	0	2	338	0.00	30.248 
18:40	34.9	34.9	34.9	62	23.2	0	1	338	0.00	30.248 
18:45	34.7	34.7	34.7	62	23.0	0	1	338	0.00	30.249 
18:50	34.7	34.7	34.7	62	23.0	0	2	338	0.00	30.249 
18:55	34.6	34.6	34.6	62	22.9	0	1	338	0.00	30.249 
19:00	34.6	34.6	34.6	62	22.9	0	1	338	0.00	30.253 
19:05	34.4	34.4	34.4	62	22.7	0	1	338	0.00	30.253 
19:10	34.4	34.4	34.4	62	22.7	0	1	338	0.00	30.253 
19:15	34.3	34.3	34.3	62	22.7	0	0	---	0.00	30.262 
19:20	34.3	34.3	34.3	62	22.7	0	1	338	0.00	30.262 
19:25	34.3	34.3	34.3	62	22.7	0	1	338	0.00	30.262 
19:30	34.1	34.1	34.1	62	22.5	0	1	338	0.00	30.264 
19:35	34.1	34.1	34.1	62	22.5	0	1	338	0.00	30.264 
19:40	34.1	34.1	34.1	62	22.5	0	2	338	0.00	30.264 
19:45	34.0	34.0	34.0	61	22.0	0	1	338	0.00	30.266 
19:50	34.0	34.0	34.0	62	22.4	0	1	338	0.00	30.266 
19:55	33.8	33.8	33.8	61	21.8	0	3	338	0.00	30.266 
20:00	33.8	33.8	33.8	61	21.8	0	1	338	0.00	30.276 
20:05	33.8	33.8	33.8	61	21.8	0	1	338	0.00	30.276 
20:10	33.8	33.8	33.8	61	21.8	0	1	338	0.00	30.276 
20:15	33.8	33.8	33.8	61	21.8	0	0	---	0.00	30.279 
20:20	33.8	33.8	33.8	61	21.8	0	0	---	0.00	30.279 
20:25	33.7	33.7	33.7	62	22.1	0	1	338	0.00	30.279 
20:30	33.7	33.7	33.7	62	22.1	0	0	---	0.00	30.286 
20:35	33.7	33.7	33.7	62	22.1	0	1	338	0.00	30.286 
20:40	33.5	33.5	33.5	62	21.9	0	0	---	0.00	30.286 
20:45	33.5	33.5	33.5	62	21.9	0	1	338	0.00	30.285 
20:50	33.5	33.5	33.5	62	21.9	0	0	---	0.00	30.285 
20:55	33.5	33.5	33.5	62	21.9	0	0	---	0.00	30.285 
21:00	33.4	33.4	33.4	62	21.8	0	0	---	0.00	30.293 
21:05	33.4	33.4	33.4	62	21.8	0	0	---	0.00	30.293 
21:10	33.4	33.4	33.4	62	21.8	0	0	---	0.00	30.293 
21:15	33.2	33.2	33.2	62	21.6	0	0	---	0.00	30.293 
21:20	33.2	33.2	33.2	62	21.6	0	0	---	0.00	30.293 
21:25	33.2	33.2	33.2	62	21.6	0	0	---	0.00	30.293 
21:30	33.1	33.1	33.1	62	21.5	0	0	---	0.00	30.295 
21:35	33.1	33.1	33.1	62	21.5	0	0	---	0.00	30.295 
21:40	33.1	33.1	33.1	63	21.9	0	0	---	0.00	30.295 
21:45	33.1	33.1	33.1	63	21.9	0	0	---	0.00	30.298 
21:50	33.1	33.1	33.1	63	21.9	0	0	---	0.00	30.298 
21:55	33.1	33.1	33.1	63	21.9	0	0	---	0.00	30.298 
22:00	33.1	33.1	33.1	63	21.9	0	0	---	0.00	30.308 
22:05	32.9	32.9	32.9	63	21.7	0	0	---	0.00	30.308 
22:10	32.9	32.9	32.9	63	21.7	0	0	---	0.00	30.308 
22:15	32.9	32.9	32.9	63	21.7	0	0	---	0.00	30.304 
22:20	32.9	32.9	32.9	63	21.7	0	0	---	0.00	30.304 
22:25	32.9	32.9	32.9	63	21.7	0	0	---	0.00	30.304 
22:30	32.9	32.9	32.9	64	22.1	0	1	338	0.00	30.304 
22:35	32.9	32.9	32.9	65	22.4	0	1	338	0.00	30.304 
22:40	32.9	32.9	32.9	65	22.4	0	0	---	0.00	30.304 
22:45	32.8	32.8	32.8	67	23.1	0	1	338	0.00	30.303 
22:50	32.7	32.7	32.7	68	23.3	0	1	338	0.00	30.303 
22:55	32.7	32.7	32.7	68	23.3	0	1	338	0.00	30.303 
23:00	32.5	32.5	32.5	68	23.1	0	1	338	0.00	30.304 
23:05	32.5	32.5	32.5	69	23.5	0	0	---	0.00	30.304 
23:10	32.5	32.5	32.5	69	23.5	0	0	---	0.00	30.304 
23:15	32.5	32.5	32.5	69	23.5	0	0	---	0.00	30.303 
23:20	32.4	32.4	32.4	69	23.4	0	0	---	0.00	30.303 
23:25	32.4	32.4	32.4	70	23.7	0	0	---	0.00	30.303 
23:30	32.4	32.4	32.4	70	23.7	0	0	---	0.00	30.307 
23:35	32.4	32.4	32.4	70	23.7	0	2	338	0.00	30.307 
23:40	32.4	32.4	32.4	70	23.7	0	1	338	0.00	30.307 
23:45	32.4	32.4	32.4	70	23.7	0	1	338	0.00	30.311 
23:50	32.4	32.4	32.4	70	23.7	0	1	338	0.00	30.311 
23:55	32.4	32.4	32.4	71	24.1	0	0	---	0.00	30.311 

CoCoRaHS
IN-AL-39
A2 Web Hosting
Creative Commons License
GoDaddy
search engine by freefind advanced

loaded 2018-11-12 19:17:30 • last modified 2010-11-18 10:43:29
Privacy PolicyDisclaimer
• wx.awcolley.com is powered by PmWiki v.2002016 •
• all content (unless otherwise noted) © 2018 A W Colley